Slocum, Rhode Island
Current Conditions -  °F | °C
As of 3:53 AM on Sunday 21 Dec 2014 (Local Time) from KUUU Reporting Station
Overcast Overcast  
Wind Chill: 27°   Ceiling: 500
Heat Index: 34°   Visibility: 10mi
Dew Point: 33°   Wind: 8mph
Humidity: 96%   Direction: 20°NNE
Pressure: 30.24"   Gusts: NA
Location:  41.53°N, 71.52°W
Report Text: KUUU 210853Z AUTO 02007KT 10SM OVC005 01/01 A3024 RMK AO2 SLP241 T00110006 50000
Loading
Personal Weather Stations






























Interactive Weather Map New forecast layout! Learn more

10-Day Weather Forecast

Advertisements
Track Severe Weather on mobile